createdAt,value
2023-05-22T00:00:02.432Z,21.67
2023-05-22T00:00:18.578Z,21.66
2023-05-22T00:00:34.751Z,21.67
2023-05-22T00:00:50.872Z,21.67
2023-05-22T00:01:07.009Z,21.67
2023-05-22T00:01:23.152Z,21.67
2023-05-22T00:01:39.306Z,21.63
2023-05-22T00:01:55.492Z,21.58
2023-05-22T00:02:11.695Z,21.59
2023-05-22T00:02:27.798Z,21.6
2023-05-22T00:02:44.030Z,21.6
2023-05-22T00:03:00.139Z,21.61
2023-05-22T00:03:16.234Z,21.6
2023-05-22T00:03:32.367Z,21.56
2023-05-22T00:03:48.458Z,21.58
2023-05-22T00:04:04.619Z,21.58
2023-05-22T00:04:20.749Z,21.53
2023-05-22T00:04:36.901Z,21.53
2023-05-22T00:04:53.100Z,21.53
2023-05-22T00:05:09.244Z,21.53
2023-05-22T00:05:25.379Z,21.51
2023-05-22T00:05:41.562Z,21.51
2023-05-22T00:05:57.632Z,21.51
2023-05-22T00:06:13.777Z,21.51
2023-05-22T00:06:29.922Z,21.53
2023-05-22T00:06:46.069Z,21.54
2023-05-22T00:07:02.212Z,21.54
2023-05-22T00:07:18.367Z,21.55
2023-05-22T00:07:34.510Z,21.54
2023-05-22T00:07:50.645Z,21.52
2023-05-22T00:08:06.796Z,21.53
2023-05-22T00:08:23.021Z,21.54
2023-05-22T00:08:39.008Z,21.54
2023-05-22T00:08:55.228Z,21.56
2023-05-22T00:09:11.390Z,21.56
2023-05-22T00:09:27.519Z,21.55
2023-05-22T00:09:54.953Z,21.55
2023-05-22T00:10:11.096Z,21.55
2023-05-22T00:10:27.267Z,21.54
2023-05-22T00:10:43.401Z,21.55
2023-05-22T00:10:59.467Z,21.56
2023-05-22T00:11:15.697Z,21.57
2023-05-22T00:11:31.844Z,21.58
2023-05-22T00:11:47.970Z,21.57
2023-05-22T00:12:04.117Z,21.58
2023-05-22T00:12:20.276Z,21.55
2023-05-22T00:12:36.398Z,21.53
2023-05-22T00:12:52.551Z,21.52
2023-05-22T00:13:08.683Z,21.48
2023-05-22T00:13:24.851Z,21.47
2023-05-22T00:13:41.047Z,21.47
2023-05-22T00:13:57.130Z,21.45
2023-05-22T00:14:13.276Z,21.47
2023-05-22T00:14:29.429Z,21.48
2023-05-22T00:14:45.588Z,21.48
2023-05-22T00:15:01.736Z,21.47
2023-05-22T00:15:17.856Z,21.48
2023-05-22T00:15:34.044Z,21.48
2023-05-22T00:15:50.194Z,21.45
2023-05-22T00:16:06.326Z,21.45
2023-05-22T00:16:22.487Z,21.47
2023-05-22T00:16:38.599Z,21.47
2023-05-22T00:16:54.775Z,21.47
2023-05-22T00:17:10.935Z,21.47
2023-05-22T00:17:27.045Z,21.47
2023-05-22T00:17:43.234Z,21.48
2023-05-22T00:17:59.342Z,21.47
2023-05-22T00:18:15.464Z,21.45
2023-05-22T00:18:31.613Z,21.45
2023-05-22T00:18:47.825Z,21.46
2023-05-22T00:19:04.040Z,21.47
2023-05-22T00:19:20.075Z,21.48
2023-05-22T00:19:36.244Z,21.49
2023-05-22T00:19:52.338Z,21.49
2023-05-22T00:20:08.524Z,21.46
2023-05-22T00:20:24.618Z,21.46
2023-05-22T00:20:41.152Z,21.46
2023-05-22T00:20:56.911Z,21.46
2023-05-22T00:21:13.082Z,21.47
2023-05-22T00:21:29.218Z,21.43
2023-05-22T00:21:45.349Z,21.44
2023-05-22T00:22:01.505Z,21.46
2023-05-22T00:22:17.649Z,21.47
2023-05-22T00:22:33.803Z,21.48
2023-05-22T00:22:49.929Z,21.49
2023-05-22T00:23:06.095Z,21.49
2023-05-22T00:23:22.244Z,21.47
2023-05-22T00:23:38.398Z,21.47
2023-05-22T00:23:54.540Z,21.47
2023-05-22T00:24:10.693Z,21.47
2023-05-22T00:24:26.810Z,21.46
2023-05-22T00:24:42.958Z,21.47
2023-05-22T00:24:59.111Z,21.47
2023-05-22T00:25:15.263Z,21.46
2023-05-22T00:25:31.395Z,21.45
2023-05-22T00:25:47.550Z,21.46
2023-05-22T00:26:03.685Z,21.46
2023-05-22T00:26:19.832Z,21.47
2023-05-22T00:26:35.983Z,21.47
2023-05-22T00:26:52.143Z,21.48
2023-05-22T00:27:08.281Z,21.47
2023-05-22T00:27:24.453Z,21.46
2023-05-22T00:27:40.592Z,21.47
2023-05-22T00:27:56.712Z,21.39
2023-05-22T00:28:12.871Z,21.41
2023-05-22T00:28:29.005Z,21.36
2023-05-22T00:28:45.155Z,21.34
2023-05-22T00:29:01.293Z,21.33
2023-05-22T00:29:17.449Z,21.34
2023-05-22T00:29:33.581Z,21.35
2023-05-22T00:29:49.727Z,21.36
2023-05-22T00:30:05.881Z,21.37
2023-05-22T00:30:22.022Z,21.35
2023-05-22T00:30:38.518Z,21.34
2023-05-22T00:30:54.331Z,21.33
2023-05-22T00:31:10.454Z,21.33
2023-05-22T00:31:26.599Z,21.34
2023-05-22T00:31:42.752Z,21.32
2023-05-22T00:31:58.890Z,21.32
2023-05-22T00:32:15.042Z,21.32
2023-05-22T00:32:31.235Z,21.33
2023-05-22T00:32:47.303Z,21.28
2023-05-22T00:33:03.520Z,21.28
2023-05-22T00:33:19.610Z,21.28
2023-05-22T00:33:35.767Z,21.3
2023-05-22T00:33:51.926Z,21.3
2023-05-22T00:34:08.080Z,21.3
2023-05-22T00:34:24.240Z,21.31
2023-05-22T00:34:40.414Z,21.31
2023-05-22T00:34:56.494Z,21.31
2023-05-22T00:35:12.667Z,21.28
2023-05-22T00:35:28.793Z,21.29
2023-05-22T00:35:44.927Z,21.29
2023-05-22T00:36:01.079Z,21.23
2023-05-22T00:36:17.230Z,21.27
2023-05-22T00:36:33.350Z,21.26
2023-05-22T00:36:49.524Z,21.26
2023-05-22T00:37:05.660Z,21.27
2023-05-22T00:37:21.794Z,21.25
2023-05-22T00:37:37.958Z,21.27
2023-05-22T00:37:54.087Z,21.28
2023-05-22T00:38:10.248Z,21.28
2023-05-22T00:38:26.387Z,21.28
2023-05-22T00:38:42.517Z,21.29
2023-05-22T00:38:58.712Z,21.3
2023-05-22T00:39:14.820Z,21.3
2023-05-22T00:39:30.967Z,21.31
2023-05-22T00:39:47.127Z,21.31
2023-05-22T00:40:03.269Z,21.31
2023-05-22T00:40:19.405Z,21.3
2023-05-22T00:40:35.539Z,21.31
2023-05-22T00:40:51.724Z,21.31
2023-05-22T00:41:07.830Z,21.31
2023-05-22T00:41:24.033Z,21.32
2023-05-22T00:41:40.148Z,21.26
2023-05-22T00:41:56.268Z,21.27
2023-05-22T00:42:12.421Z,21.3
2023-05-22T00:42:28.581Z,21.31
2023-05-22T00:42:44.720Z,21.31
2023-05-22T00:43:00.857Z,21.32
2023-05-22T00:43:17.013Z,21.31
2023-05-22T00:43:33.153Z,21.31
2023-05-22T00:43:49.294Z,21.32
2023-05-22T00:44:05.435Z,21.32
2023-05-22T00:44:21.602Z,21.34
2023-05-22T00:44:37.721Z,21.34
2023-05-22T00:44:53.808Z,21.34
2023-05-22T00:45:10.018Z,21.35
2023-05-22T00:45:26.159Z,21.3
2023-05-22T00:45:42.320Z,21.3
2023-05-22T00:45:58.483Z,21.3
2023-05-22T00:46:14.769Z,21.3
2023-05-22T00:46:30.806Z,21.3
2023-05-22T00:46:46.968Z,21.27
2023-05-22T00:47:03.063Z,21.24
2023-05-22T00:47:19.181Z,21.26
2023-05-22T00:47:35.412Z,21.25
2023-05-22T00:47:51.484Z,21.25
2023-05-22T00:48:07.659Z,21.25
2023-05-22T00:48:23.780Z,21.25
2023-05-22T00:48:39.883Z,21.26
2023-05-22T00:48:56.059Z,21.25
2023-05-22T00:49:12.246Z,21.24
2023-05-22T00:49:28.355Z,21.24
2023-05-22T00:49:44.517Z,21.24
2023-05-22T00:50:00.645Z,21.24
2023-05-22T00:50:16.807Z,21.19
2023-05-22T00:50:32.967Z,21.18
2023-05-22T00:50:49.117Z,21.19
2023-05-22T00:51:05.221Z,21.19
2023-05-22T00:51:21.377Z,21.19
2023-05-22T00:51:37.508Z,21.18
2023-05-22T00:51:53.659Z,21.16
2023-05-22T00:52:09.807Z,21.16
2023-05-22T00:52:26.002Z,21.14
2023-05-22T00:52:42.098Z,21.14
2023-05-22T00:52:58.261Z,21.14
2023-05-22T00:53:14.396Z,21.14
2023-05-22T00:53:30.557Z,21.14
2023-05-22T00:53:46.699Z,21.13
2023-05-22T00:54:02.877Z,21.11
2023-05-22T00:54:18.965Z,21.09
2023-05-22T00:54:35.040Z,21.1
2023-05-22T00:54:51.268Z,21.11
2023-05-22T00:55:07.411Z,21.1
2023-05-22T00:55:23.546Z,21.11
2023-05-22T00:55:39.696Z,21.12
2023-05-22T00:55:55.853Z,21.11
2023-05-22T00:56:11.988Z,21.12
2023-05-22T00:56:28.137Z,21.12
2023-05-22T00:56:44.294Z,21.12
2023-05-22T00:57:00.426Z,21.13
2023-05-22T00:57:16.567Z,21.13
2023-05-22T00:57:32.735Z,21.13
2023-05-22T00:57:48.860Z,21.13
2023-05-22T00:58:05.007Z,21.13
2023-05-22T00:58:21.169Z,21.15
2023-05-22T00:58:37.310Z,21.15
2023-05-22T00:58:53.482Z,21.14
2023-05-22T00:59:09.602Z,21.13
2023-05-22T00:59:25.738Z,21.13
2023-05-22T00:59:41.897Z,21.14
2023-05-22T00:59:58.029Z,21.12
2023-05-22T01:00:14.177Z,21.12
2023-05-22T01:00:30.342Z,21.12
2023-05-22T01:00:46.466Z,21.11
2023-05-22T01:01:02.623Z,21.12
2023-05-22T01:01:18.814Z,21.12
2023-05-22T01:01:34.926Z,21.12
2023-05-22T01:01:51.153Z,21.13
2023-05-22T01:02:07.230Z,21.15
2023-05-22T01:02:23.336Z,21.15
2023-05-22T01:02:39.553Z,21.13
2023-05-22T01:02:55.686Z,21.13
2023-05-22T01:03:11.837Z,21.13
2023-05-22T01:03:28.030Z,21.12
2023-05-22T01:03:55.466Z,21.08
2023-05-22T01:04:11.599Z,21.09
2023-05-22T01:04:27.637Z,21.1
2023-05-22T01:04:43.796Z,21.11
2023-05-22T01:04:59.944Z,21.11
2023-05-22T01:05:16.080Z,21.11
2023-05-22T01:05:32.224Z,21.12
2023-05-22T01:05:48.357Z,21.11
2023-05-22T01:06:04.534Z,21.11
2023-05-22T01:06:20.684Z,21.12
2023-05-22T01:06:36.796Z,21.12
2023-05-22T01:06:52.958Z,21.13
2023-05-22T01:07:09.093Z,21.12
2023-05-22T01:07:25.253Z,21.11
2023-05-22T01:07:41.393Z,21.09
2023-05-22T01:07:57.533Z,21.1
2023-05-22T01:08:13.686Z,21.08
2023-05-22T01:08:29.809Z,21.08
2023-05-22T01:08:45.986Z,21.08
2023-05-22T01:09:02.153Z,21.07
2023-05-22T01:09:18.256Z,21.07
2023-05-22T01:09:34.396Z,21.07
2023-05-22T01:09:50.556Z,21.07
2023-05-22T01:10:06.703Z,21.08
2023-05-22T01:10:22.851Z,21.07
2023-05-22T01:10:39.279Z,21.07
2023-05-22T01:10:55.134Z,21.03
2023-05-22T01:11:11.283Z,21.03
2023-05-22T01:11:27.426Z,21
2023-05-22T01:11:43.558Z,20.97
2023-05-22T01:11:59.748Z,20.93
2023-05-22T01:12:15.861Z,20.88
2023-05-22T01:12:32.036Z,20.9
2023-05-22T01:12:48.152Z,20.91
2023-05-22T01:13:04.292Z,20.9
2023-05-22T01:13:20.451Z,20.9
2023-05-22T01:13:36.595Z,20.91
2023-05-22T01:13:52.729Z,20.92
2023-05-22T01:14:08.884Z,20.92
2023-05-22T01:14:25.018Z,20.91
2023-05-22T01:14:41.193Z,20.92
2023-05-22T01:14:57.337Z,20.91
2023-05-22T01:15:13.457Z,20.92
2023-05-22T01:15:29.634Z,20.92
2023-05-22T01:15:45.750Z,20.87
2023-05-22T01:16:02.044Z,20.81
2023-05-22T01:16:18.083Z,20.81
2023-05-22T01:16:34.236Z,20.82
2023-05-22T01:16:50.405Z,20.84
2023-05-22T01:17:06.513Z,20.86
2023-05-22T01:17:22.735Z,20.87
2023-05-22T01:17:38.790Z,20.87
2023-05-22T01:17:55.044Z,20.85
2023-05-22T01:18:11.161Z,20.83
2023-05-22T01:18:27.219Z,20.84
2023-05-22T01:18:43.380Z,20.83
2023-05-22T01:18:59.543Z,20.84
2023-05-22T01:19:15.729Z,20.83
2023-05-22T01:19:31.976Z,20.84
2023-05-22T01:19:48.001Z,20.8
2023-05-22T01:20:04.119Z,20.79
2023-05-22T01:20:20.251Z,20.78
2023-05-22T01:20:36.468Z,20.8
2023-05-22T01:20:52.522Z,20.81
2023-05-22T01:21:08.677Z,20.81
2023-05-22T01:21:24.864Z,20.77
2023-05-22T01:21:41.003Z,20.75
2023-05-22T01:21:57.138Z,20.74
2023-05-22T01:22:13.269Z,20.74
2023-05-22T01:22:29.433Z,20.75
2023-05-22T01:22:45.558Z,20.74
2023-05-22T01:23:01.708Z,20.75
2023-05-22T01:23:17.825Z,20.75
2023-05-22T01:23:33.973Z,20.73
2023-05-22T01:23:50.124Z,20.73
2023-05-22T01:24:06.327Z,20.74
2023-05-22T01:24:22.399Z,20.74
2023-05-22T01:24:38.557Z,20.76
2023-05-22T01:24:54.700Z,20.77
2023-05-22T01:25:10.848Z,20.78
2023-05-22T01:25:27.038Z,20.79
2023-05-22T01:25:43.192Z,20.81
2023-05-22T01:25:59.287Z,20.8
2023-05-22T01:26:15.426Z,20.81
2023-05-22T01:26:31.582Z,20.81
2023-05-22T01:26:47.739Z,20.81
2023-05-22T01:27:03.886Z,20.82
2023-05-22T01:27:20.028Z,20.81
2023-05-22T01:27:36.153Z,20.82
2023-05-22T01:27:52.297Z,20.81
2023-05-22T01:28:08.488Z,20.82
2023-05-22T01:28:24.589Z,20.82
2023-05-22T01:28:40.747Z,20.83
2023-05-22T01:28:56.909Z,20.84
2023-05-22T01:29:13.023Z,20.84
2023-05-22T01:29:29.185Z,20.84
2023-05-22T01:29:45.316Z,20.84
2023-05-22T01:30:01.482Z,20.84
2023-05-22T01:30:17.623Z,20.77
2023-05-22T01:30:33.772Z,20.77
2023-05-22T01:30:49.905Z,20.77
2023-05-22T01:31:06.062Z,20.76
2023-05-22T01:31:22.204Z,20.75
2023-05-22T01:31:38.375Z,20.75
2023-05-22T01:31:54.480Z,20.76
2023-05-22T01:32:10.627Z,20.76
2023-05-22T01:32:26.885Z,20.76
2023-05-22T01:32:43.021Z,20.77
2023-05-22T01:32:59.150Z,20.78
2023-05-22T01:33:15.335Z,20.78
2023-05-22T01:33:31.445Z,20.79
2023-05-22T01:33:47.573Z,20.77
2023-05-22T01:34:03.748Z,20.76
2023-05-22T01:34:19.792Z,20.76
2023-05-22T01:34:35.948Z,20.76
2023-05-22T01:34:52.097Z,20.75
2023-05-22T01:35:08.245Z,20.76
2023-05-22T01:35:24.377Z,20.77
2023-05-22T01:35:40.533Z,20.73
2023-05-22T01:35:56.673Z,20.74
2023-05-22T01:36:12.827Z,20.76
2023-05-22T01:36:29.011Z,20.76
2023-05-22T01:36:45.116Z,20.76
2023-05-22T01:37:01.256Z,20.74
2023-05-22T01:37:17.405Z,20.67
2023-05-22T01:37:33.547Z,20.69
2023-05-22T01:37:49.736Z,20.7
2023-05-22T01:38:05.836Z,20.7
2023-05-22T01:38:22.000Z,20.71
2023-05-22T01:38:38.131Z,20.69
2023-05-22T01:38:54.263Z,20.69
2023-05-22T01:39:10.403Z,20.69
2023-05-22T01:39:26.591Z,20.69
2023-05-22T01:39:42.717Z,20.69
2023-05-22T01:39:58.854Z,20.68
2023-05-22T01:40:15.002Z,20.58
2023-05-22T01:40:31.151Z,20.6
2023-05-22T01:40:47.313Z,20.59
2023-05-22T01:41:03.434Z,20.61
2023-05-22T01:41:19.582Z,20.61
2023-05-22T01:41:35.752Z,20.62
2023-05-22T01:41:51.865Z,20.61
2023-05-22T01:42:08.028Z,20.6
2023-05-22T01:42:24.187Z,20.6
2023-05-22T01:42:40.291Z,20.6
2023-05-22T01:42:56.465Z,20.59
2023-05-22T01:43:12.597Z,20.61
2023-05-22T01:43:28.741Z,20.62
2023-05-22T01:43:44.901Z,20.62
2023-05-22T01:44:01.056Z,20.61
2023-05-22T01:44:17.204Z,20.62
2023-05-22T01:44:33.333Z,20.61
2023-05-22T01:44:49.483Z,20.62
2023-05-22T01:45:05.652Z,20.63
2023-05-22T01:45:21.797Z,20.62
2023-05-22T01:45:37.954Z,20.62
2023-05-22T01:45:54.132Z,20.62
2023-05-22T01:46:10.261Z,20.62
2023-05-22T01:46:26.456Z,20.63
2023-05-22T01:46:42.517Z,20.63
2023-05-22T01:46:58.636Z,20.64
2023-05-22T01:47:14.776Z,20.64
2023-05-22T01:47:30.954Z,20.64
2023-05-22T01:47:47.088Z,20.63
2023-05-22T01:48:03.287Z,20.62
2023-05-22T01:48:19.392Z,20.62
2023-05-22T01:48:35.520Z,20.61
2023-05-22T01:48:51.663Z,20.61
2023-05-22T01:49:07.814Z,20.59
2023-05-22T01:49:23.958Z,20.58
2023-05-22T01:49:40.096Z,20.57
2023-05-22T01:49:56.261Z,20.58
2023-05-22T01:50:12.404Z,20.56
2023-05-22T01:50:28.544Z,20.57
2023-05-22T01:50:44.673Z,20.58
2023-05-22T01:51:00.818Z,20.58
2023-05-22T01:51:16.972Z,20.58
2023-05-22T01:51:33.127Z,20.58
2023-05-22T01:51:49.267Z,20.57
2023-05-22T01:52:05.451Z,20.52
2023-05-22T01:52:21.534Z,20.54
2023-05-22T01:52:37.720Z,20.54
2023-05-22T01:52:53.854Z,20.53
2023-05-22T01:53:09.988Z,20.52
2023-05-22T01:53:26.145Z,20.53
2023-05-22T01:53:42.278Z,20.52
2023-05-22T01:53:58.435Z,20.52
2023-05-22T01:54:14.575Z,20.51
2023-05-22T01:54:30.710Z,20.51
2023-05-22T01:54:46.872Z,20.51
2023-05-22T01:55:03.030Z,20.51
2023-05-22T01:55:19.155Z,20.52
2023-05-22T01:55:35.367Z,20.49
2023-05-22T01:55:51.430Z,20.5
2023-05-22T01:56:07.610Z,20.49
2023-05-22T01:56:23.725Z,20.5
2023-05-22T01:56:39.884Z,20.49
2023-05-22T01:56:56.049Z,20.48
2023-05-22T01:57:12.244Z,20.46
2023-05-22T01:57:28.353Z,20.48
2023-05-22T01:57:55.788Z,20.48
2023-05-22T01:58:11.887Z,20.47
2023-05-22T01:58:28.037Z,20.47
2023-05-22T01:58:44.193Z,20.48
2023-05-22T01:59:00.343Z,20.47
2023-05-22T01:59:16.479Z,20.47
2023-05-22T01:59:32.635Z,20.45
2023-05-22T01:59:48.759Z,20.42
2023-05-22T02:00:04.914Z,20.42
2023-05-22T02:00:21.053Z,20.42
2023-05-22T02:00:37.353Z,20.41
2023-05-22T02:00:53.371Z,20.4
2023-05-22T02:01:09.534Z,20.4
2023-05-22T02:01:25.677Z,20.4
2023-05-22T02:01:41.909Z,20.4
2023-05-22T02:01:57.927Z,20.4
2023-05-22T02:02:14.118Z,20.41
2023-05-22T02:02:30.390Z,20.41
2023-05-22T02:02:46.469Z,20.41
2023-05-22T02:03:02.570Z,20.41
2023-05-22T02:03:18.864Z,20.41
2023-05-22T02:03:34.798Z,20.41
2023-05-22T02:03:50.948Z,20.42
2023-05-22T02:04:07.096Z,20.43
2023-05-22T02:04:23.266Z,20.42
2023-05-22T02:04:39.417Z,20.42
2023-05-22T02:04:55.542Z,20.42
2023-05-22T02:05:11.714Z,20.43
2023-05-22T02:05:27.838Z,20.42
2023-05-22T02:05:43.994Z,20.43
2023-05-22T02:06:00.199Z,20.43
2023-05-22T02:06:16.272Z,20.43
2023-05-22T02:06:32.400Z,20.43
2023-05-22T02:06:48.582Z,20.43
2023-05-22T02:07:04.695Z,20.38
2023-05-22T02:07:20.869Z,20.39
2023-05-22T02:07:36.988Z,20.38
2023-05-22T02:07:53.157Z,20.38
2023-05-22T02:08:09.272Z,20.38
2023-05-22T02:08:25.435Z,20.38
2023-05-22T02:08:41.556Z,20.38
2023-05-22T02:08:57.745Z,20.38
2023-05-22T02:09:13.862Z,20.37
2023-05-22T02:09:30.042Z,20.34
2023-05-22T02:09:46.164Z,20.35
2023-05-22T02:10:02.303Z,20.36
2023-05-22T02:10:18.456Z,20.36
2023-05-22T02:10:34.623Z,20.36
2023-05-22T02:10:50.740Z,20.36
2023-05-22T02:11:06.905Z,20.37
2023-05-22T02:11:23.024Z,20.37
2023-05-22T02:11:39.208Z,20.36
2023-05-22T02:11:55.324Z,20.34
2023-05-22T02:12:11.479Z,20.35
2023-05-22T02:12:27.618Z,20.35
2023-05-22T02:12:43.787Z,20.35
2023-05-22T02:12:59.895Z,20.35
2023-05-22T02:13:16.050Z,20.35
2023-05-22T02:13:32.248Z,20.35
2023-05-22T02:13:48.342Z,20.36
2023-05-22T02:14:04.483Z,20.36
2023-05-22T02:14:20.646Z,20.37
2023-05-22T02:14:36.778Z,20.35
2023-05-22T02:14:52.965Z,20.34
2023-05-22T02:15:09.080Z,20.34
2023-05-22T02:15:25.272Z,20.33
2023-05-22T02:15:41.399Z,20.34
2023-05-22T02:15:57.574Z,20.35
2023-05-22T02:16:13.676Z,20.35
2023-05-22T02:16:29.794Z,20.35
2023-05-22T02:16:45.935Z,20.36
2023-05-22T02:17:02.011Z,20.35
2023-05-22T02:17:18.252Z,20.35
2023-05-22T02:17:34.462Z,20.35
2023-05-22T02:17:50.559Z,20.35
2023-05-22T02:18:06.705Z,20.34
2023-05-22T02:18:22.827Z,20.33
2023-05-22T02:18:38.993Z,20.34
2023-05-22T02:18:55.148Z,20.33
2023-05-22T02:19:11.297Z,20.33
2023-05-22T02:19:27.492Z,20.33
2023-05-22T02:19:43.536Z,20.33
2023-05-22T02:19:59.684Z,20.31
2023-05-22T02:20:15.843Z,20.3
2023-05-22T02:20:31.988Z,20.31
2023-05-22T02:20:48.132Z,20.31
2023-05-22T02:21:04.266Z,20.3
2023-05-22T02:21:20.432Z,20.3
2023-05-22T02:21:36.637Z,20.3
2023-05-22T02:21:52.707Z,20.31
2023-05-22T02:22:08.879Z,20.3
2023-05-22T02:22:24.985Z,20.27
2023-05-22T02:22:41.148Z,20.27
2023-05-22T02:22:57.317Z,20.28
2023-05-22T02:23:13.439Z,20.27
2023-05-22T02:23:29.758Z,20.25
2023-05-22T02:23:45.742Z,20.24
2023-05-22T02:24:01.895Z,20.24
2023-05-22T02:24:18.003Z,20.24
2023-05-22T02:24:34.164Z,20.24
2023-05-22T02:24:50.307Z,20.25
2023-05-22T02:25:06.446Z,20.23
2023-05-22T02:25:22.615Z,20.23
2023-05-22T02:25:38.740Z,20.23
2023-05-22T02:25:54.921Z,20.24
2023-05-22T02:26:11.034Z,20.24
2023-05-22T02:26:27.188Z,20.24
2023-05-22T02:26:43.325Z,20.23
2023-05-22T02:26:59.470Z,20.22
2023-05-22T02:27:15.632Z,20.22
2023-05-22T02:27:31.774Z,20.21
2023-05-22T02:27:47.927Z,20.21
2023-05-22T02:28:04.055Z,20.21
2023-05-22T02:28:20.188Z,20.21
2023-05-22T02:28:36.351Z,20.21
2023-05-22T02:28:52.502Z,20.22
2023-05-22T02:29:08.624Z,20.22
2023-05-22T02:29:24.783Z,20.21
2023-05-22T02:29:40.969Z,20.2
2023-05-22T02:29:57.080Z,20.2
2023-05-22T02:30:13.220Z,20.18
2023-05-22T02:30:29.367Z,20.19
2023-05-22T02:30:45.547Z,20.19
2023-05-22T02:31:01.693Z,20.18
2023-05-22T02:31:17.834Z,20.19
2023-05-22T02:31:33.953Z,20.19
2023-05-22T02:31:50.116Z,20.17
2023-05-22T02:32:06.279Z,20.17
2023-05-22T02:32:22.462Z,20.17
2023-05-22T02:32:38.540Z,20.17
2023-05-22T02:32:54.709Z,20.18
2023-05-22T02:33:10.889Z,20.18
2023-05-22T02:33:26.975Z,20.18
2023-05-22T02:33:43.109Z,20.17
2023-05-22T02:33:59.260Z,20.17
2023-05-22T02:34:15.414Z,20.15
2023-05-22T02:34:31.542Z,20.15
2023-05-22T02:34:47.689Z,20.15
2023-05-22T02:35:03.837Z,20.14
2023-05-22T02:35:19.995Z,20.13
2023-05-22T02:35:36.145Z,20.13
2023-05-22T02:35:52.279Z,20.13
2023-05-22T02:36:08.411Z,20.12
2023-05-22T02:36:24.579Z,20.09
2023-05-22T02:36:40.724Z,20.1
2023-05-22T02:36:56.853Z,20.1
2023-05-22T02:37:13.004Z,20.06
2023-05-22T02:37:29.144Z,20.04
2023-05-22T02:37:45.300Z,20.06
2023-05-22T02:38:01.434Z,20.06
2023-05-22T02:38:17.620Z,20.06
2023-05-22T02:38:33.750Z,20.06
2023-05-22T02:38:49.885Z,20.06
2023-05-22T02:39:06.028Z,20.07
2023-05-22T02:39:22.175Z,20.06
2023-05-22T02:39:38.321Z,20.06
2023-05-22T02:39:54.478Z,20.05
2023-05-22T02:40:10.625Z,20.05
2023-05-22T02:40:26.855Z,20.05
2023-05-22T02:40:42.892Z,20.05
2023-05-22T02:40:59.050Z,20.05
2023-05-22T02:41:15.170Z,20.05
2023-05-22T02:41:31.358Z,20.06
2023-05-22T02:41:47.511Z,20.06
2023-05-22T02:42:03.664Z,20.07
2023-05-22T02:42:19.789Z,20.06
2023-05-22T02:42:35.908Z,20.07
2023-05-22T02:42:52.072Z,20.07
2023-05-22T02:43:08.222Z,20.07
2023-05-22T02:43:24.345Z,20.06
2023-05-22T02:43:40.502Z,20.03
2023-05-22T02:43:56.682Z,19.98
2023-05-22T02:44:12.794Z,20
2023-05-22T02:44:28.924Z,19.99
2023-05-22T02:44:45.067Z,19.99
2023-05-22T02:45:01.225Z,19.99
2023-05-22T02:45:17.404Z,20
2023-05-22T02:45:33.556Z,19.99
2023-05-22T02:45:49.648Z,19.97
2023-05-22T02:46:05.840Z,19.98
2023-05-22T02:46:21.991Z,19.96
2023-05-22T02:46:38.125Z,19.95
2023-05-22T02:46:54.402Z,19.93
2023-05-22T02:47:10.393Z,19.94
2023-05-22T02:47:26.590Z,19.95
2023-05-22T02:47:42.719Z,19.94
2023-05-22T02:47:58.872Z,19.95
2023-05-22T02:48:15.051Z,19.96
2023-05-22T02:48:31.114Z,19.96
2023-05-22T02:48:47.272Z,19.97
2023-05-22T02:49:03.407Z,19.96
2023-05-22T02:49:19.576Z,19.97
2023-05-22T02:49:35.694Z,19.96
2023-05-22T02:49:51.860Z,19.96
2023-05-22T02:50:07.984Z,19.96
2023-05-22T02:50:24.128Z,19.96
2023-05-22T02:50:40.544Z,19.95
2023-05-22T02:50:56.419Z,19.96
2023-05-22T02:51:12.576Z,19.97
2023-05-22T02:51:28.722Z,19.97
2023-05-22T02:51:56.149Z,19.99
2023-05-22T02:52:12.274Z,19.99
2023-05-22T02:52:28.567Z,19.98
2023-05-22T02:52:44.602Z,19.97
2023-05-22T02:53:00.761Z,19.98
2023-05-22T02:53:16.859Z,19.98
2023-05-22T02:53:33.120Z,19.99
2023-05-22T02:53:49.157Z,19.98
2023-05-22T02:54:05.306Z,19.96
2023-05-22T02:54:21.448Z,19.97
2023-05-22T02:54:37.598Z,19.96
2023-05-22T02:54:53.746Z,19.92
2023-05-22T02:55:09.918Z,19.93
2023-05-22T02:55:26.039Z,19.94
2023-05-22T02:55:42.192Z,19.95
2023-05-22T02:55:58.340Z,19.95
2023-05-22T02:56:14.508Z,19.94
2023-05-22T02:56:46.764Z,19.93
2023-05-22T02:57:02.932Z,19.93
2023-05-22T02:57:19.046Z,19.93
2023-05-22T02:57:35.193Z,19.93
2023-05-22T02:57:51.376Z,19.9
2023-05-22T02:58:07.531Z,19.91
2023-05-22T02:58:23.638Z,19.93
2023-05-22T02:58:39.777Z,19.93
2023-05-22T02:58:55.945Z,19.91
2023-05-22T02:59:12.083Z,19.92
2023-05-22T02:59:28.132Z,19.92
2023-05-22T02:59:44.381Z,19.92
2023-05-22T03:00:00.515Z,19.92
2023-05-22T03:00:16.658Z,19.93
2023-05-22T03:00:32.810Z,19.93
2023-05-22T03:00:48.937Z,19.94
2023-05-22T03:01:05.102Z,19.93
2023-05-22T03:01:21.273Z,19.92
2023-05-22T03:01:37.410Z,19.91
2023-05-22T03:01:53.606Z,19.9
2023-05-22T03:02:09.918Z,19.9
2023-05-22T03:02:26.052Z,19.9
2023-05-22T03:02:41.992Z,19.9
2023-05-22T03:02:58.205Z,19.91
2023-05-22T03:03:14.371Z,19.92
2023-05-22T03:03:30.461Z,19.93
2023-05-22T03:03:46.618Z,19.93
2023-05-22T03:04:02.757Z,19.93
2023-05-22T03:04:18.843Z,19.92
2023-05-22T03:04:34.980Z,19.91
2023-05-22T03:04:51.132Z,19.91
2023-05-22T03:05:07.331Z,19.9
2023-05-22T03:05:23.422Z,19.9
2023-05-22T03:05:39.566Z,19.91
2023-05-22T03:05:55.711Z,19.91
2023-05-22T03:06:11.858Z,19.9
2023-05-22T03:06:28.010Z,19.9
2023-05-22T03:06:44.148Z,19.9
2023-05-22T03:07:00.298Z,19.9
2023-05-22T03:07:16.471Z,19.9
2023-05-22T03:07:32.582Z,19.9
2023-05-22T03:07:49.025Z,19.89
2023-05-22T03:08:04.868Z,19.88
2023-05-22T03:08:21.010Z,19.88
2023-05-22T03:08:37.174Z,19.88
2023-05-22T03:08:53.319Z,19.87
2023-05-22T03:09:09.495Z,19.87
2023-05-22T03:09:25.603Z,19.85
2023-05-22T03:09:41.759Z,19.84
2023-05-22T03:09:57.924Z,19.84
2023-05-22T03:10:14.079Z,19.82
2023-05-22T03:10:30.203Z,19.8
2023-05-22T03:10:46.336Z,19.79
2023-05-22T03:11:02.484Z,19.78
2023-05-22T03:11:18.617Z,19.78
2023-05-22T03:11:34.784Z,19.78
2023-05-22T03:11:50.914Z,19.77
2023-05-22T03:12:07.066Z,19.76
2023-05-22T03:12:23.194Z,19.76
2023-05-22T03:12:39.368Z,19.76
2023-05-22T03:12:55.530Z,19.75
2023-05-22T03:13:11.672Z,19.75
2023-05-22T03:13:27.786Z,19.75
2023-05-22T03:13:43.946Z,19.75
2023-05-22T03:14:00.133Z,19.75
2023-05-22T03:14:16.236Z,19.75
2023-05-22T03:14:32.378Z,19.74
2023-05-22T03:14:48.532Z,19.73
2023-05-22T03:15:04.649Z,19.67
2023-05-22T03:15:20.844Z,19.69
2023-05-22T03:15:36.973Z,19.68
2023-05-22T03:15:53.163Z,19.68
2023-05-22T03:16:09.296Z,19.68
2023-05-22T03:16:25.430Z,19.68
2023-05-22T03:16:41.608Z,19.69
2023-05-22T03:16:57.679Z,19.68
2023-05-22T03:17:13.832Z,19.69
2023-05-22T03:17:30.013Z,19.68
2023-05-22T03:17:46.206Z,19.66
2023-05-22T03:18:02.373Z,19.67
2023-05-22T03:18:18.403Z,19.67
2023-05-22T03:18:34.544Z,19.63
2023-05-22T03:18:50.668Z,19.61
2023-05-22T03:19:06.909Z,19.61
2023-05-22T03:19:23.043Z,19.6
2023-05-22T03:19:39.134Z,19.57
2023-05-22T03:19:55.290Z,19.56
2023-05-22T03:20:11.360Z,19.56
2023-05-22T03:20:27.577Z,19.54
2023-05-22T03:20:43.715Z,19.55
2023-05-22T03:20:59.894Z,19.55
2023-05-22T03:21:16.044Z,19.56
2023-05-22T03:21:32.161Z,19.56
2023-05-22T03:21:48.300Z,19.53
2023-05-22T03:22:04.458Z,19.54
2023-05-22T03:22:20.589Z,19.54
2023-05-22T03:22:36.666Z,19.55
2023-05-22T03:22:52.874Z,19.52
2023-05-22T03:23:09.058Z,19.53
2023-05-22T03:23:25.197Z,19.53
2023-05-22T03:23:41.346Z,19.5
2023-05-22T03:23:57.466Z,19.5
2023-05-22T03:24:13.628Z,19.48
2023-05-22T03:24:29.786Z,19.47
2023-05-22T03:24:45.900Z,19.48
2023-05-22T03:25:01.969Z,19.47
2023-05-22T03:25:18.185Z,19.46
2023-05-22T03:25:34.385Z,19.47
2023-05-22T03:25:50.484Z,19.48
2023-05-22T03:26:06.637Z,19.47
2023-05-22T03:26:22.834Z,19.43
2023-05-22T03:26:38.958Z,19.45
2023-05-22T03:26:55.070Z,19.46
2023-05-22T03:27:11.208Z,19.45
2023-05-22T03:27:27.388Z,19.43
2023-05-22T03:27:43.543Z,19.44
2023-05-22T03:27:59.667Z,19.38
2023-05-22T03:28:15.813Z,19.39
2023-05-22T03:28:31.933Z,19.39
2023-05-22T03:28:48.147Z,19.39
2023-05-22T03:29:04.312Z,19.4
2023-05-22T03:29:20.443Z,19.42
2023-05-22T03:29:36.551Z,19.43